Strona główna
METAR-TAF:

METAR-TAF

Lotnisko :

Port lotniczy Ndżamena

Ndżamena, Czad

Szerokość geograficzna: 12-08N, Długość geograficzna: 015-02E, wysokość: 295 m

Aktualna obserwacja pogody

Raport powstał 1 godzina i 24 minut temu, godzina 08:00 UTC
Wiatr 9 kt od południe, zmienny między południe i zachodnio-południowy zachód
Temperatura 34°C
Wilgotność 50%
Ciśnienie 1010 hPa
Widzialność 10 km lub więcej
Brak chmur poniżej 1500 m i brak chmur cumulonimbus

METAR: FTTJ 040800Z 19009KT 190V250 CAVOK 34/22 Q1010 NOSIG

czas: 10:24 (09:24 UTC)

Prognoza

Raport powstał 4 godziny i 24 minut temu, godzina 05:00 UTC
Prognoza ważna od 04 godzina 06 UTC do 05 godzina 12 UTC
Wiatr 10 kt od południowy zachód
Widzialność: 6000 m
Prawdopodobieństwo 30% :
Przejściowo
od 04 godzina 14 UTC do 04 godzina 20 UTC
Wiatr 15 kt z kierunków zmiennych w porywach dochodzący do 25 kt
Widzialność: 2500 m
zawieja pyłowa, burza, deszcz

TAF: FTTJ 040500Z 0406/0512 22010KT 6000 NSC PROB30 TEMPO 0414/0420 VRB15G25KT 2500 BLDU TSRA

Obserwacja i prognoza pogody dla ponad 4000 lotnisk (raport METAR i TAF).

Dostępne stacje oznaczono żółtymi i czerwonymi punktami na mapie.

Najedź kursorem aby zobaczyć nazwę stacji.

Kliknij aby zobaczyć obserwacje i prognozy pogody.

Aby zmienić mapę: kliknij na zielony przycisk z czarnym krzyżykiem, aby powiększyć; na zielony przycisk z myślnikiem, aby pomniejszyć; na zielone strzałki, aby przejść do map sąsiednich.


METAR-TAF: